Time;durP1;ratioP1;P1;durP2;ratioP2;P2;SDS_P1;SDS_P2;PMS_P1;PMS_P2;Temp;Humidity;BMP_temperature;BMP_pressure;BME280_temperature;BME280_humidity;BME280_pressure;Samples;Min_cycle;Max_cycle;Signal;HPM_P1;HPM_P2
2021/07/19 00:00:28;;;;;;;53.63;31.88;;;;;;;23.49;67.92;98384.72;5004831;28;20414;-76
2021/07/19 00:02:54;;;;;;;52.17;28.40;;;;;;;23.48;67.44;98369.19;5005128;28;20045;-76
2021/07/19 00:05:23;;;;;;;52.85;29.60;;;;;;;23.53;67.39;98376.38;5008463;28;20308;-75
2021/07/19 00:07:49;;;;;;;48.42;27.77;;;;;;;23.67;67.10;98370.00;5011082;28;20506;-75
2021/07/19 00:10:19;;;;;;;53.70;30.15;;;;;;;23.70;66.64;98364.44;5008761;28;20050;-75
2021/07/19 00:12:46;;;;;;;50.92;28.27;;;;;;;23.83;66.38;98367.59;5010513;28;20486;-76
2021/07/19 00:15:15;;;;;;;46.13;27.42;;;;;;;23.93;65.83;98371.56;5000266;28;20132;-75
2021/07/19 00:17:42;;;;;;;51.60;29.02;;;;;;;24.07;65.42;98379.97;4979388;28;20072;-75
2021/07/19 00:20:09;;;;;;;49.13;27.92;;;;;;;24.11;64.92;98371.59;5008679;28;20408;-74
2021/07/19 00:22:36;;;;;;;48.17;27.30;;;;;;;24.17;64.63;98375.56;5010292;28;20045;-73
2021/07/19 00:25:03;;;;;;;57.78;29.48;;;;;;;24.10;64.94;98377.56;5006460;28;20502;-76
2021/07/19 00:27:30;;;;;;;;;;;;;;;24.17;64.64;98385.94;5008891;28;20045;-75
2021/07/19 00:29:56;;;;;;;49.00;27.88;;;;;;;24.29;64.17;98387.50;5007286;28;19929;-76
2021/07/19 00:32:22;;;;;;;52.03;27.67;;;;;;;24.38;63.93;98387.09;5011694;28;20092;-76
2021/07/19 00:34:48;;;;;;;44.85;27.70;;;;;;;24.36;64.01;98377.13;5000190;28;20461;-76
2021/07/19 00:37:25;;;;;;;;;;;;;;;24.36;64.04;98379.13;5018711;28;20060;-76
2021/07/19 00:39:51;;;;;;;92.77;48.43;;;;;;;24.34;63.42;98371.13;5007900;28;20011;-76
2021/07/19 00:42:17;;;;;;;100.43;50.37;;;;;;;24.46;63.48;98381.06;4994335;28;20056;-76
2021/07/19 00:44:45;;;;;;;116.20;55.60;;;;;;;24.43;63.16;98353.97;5005405;28;20541;-75
2021/07/19 00:47:11;;;;;;;109.13;49.22;;;;;;;24.66;62.79;98368.63;5010626;28;20403;-76
2021/07/19 00:49:42;;;;;;;83.25;41.70;;;;;;;24.74;62.56;98367.41;5007404;28;20046;-76
2021/07/19 00:52:08;;;;;;;58.65;32.80;;;;;;;24.83;62.25;98365.00;5010536;28;20049;-76
2021/07/19 00:54:37;;;;;;;64.95;30.85;;;;;;;24.95;61.50;98371.34;4991267;28;20046;-76
2021/07/19 00:57:05;;;;;;;46.10;26.77;;;;;;;25.00;61.28;98374.50;4990213;28;20072;-76
2021/07/19 00:59:34;;;;;;;47.70;26.55;;;;;;;24.99;61.02;98372.91;5004613;28;20054;-77
2021/07/19 01:02:03;;;;;;;54.45;31.33;;;;;;;25.01;60.78;98364.09;4990843;28;20057;-78
2021/07/19 01:04:32;;;;;;;53.15;31.02;;;;;;;24.78;60.81;98348.66;5003363;28;20725;-78
2021/07/19 01:07:02;;;;;;;49.75;26.73;;;;;;;24.76;61.28;98363.03;4992771;28;20037;-79
2021/07/19 01:09:31;;;;;;;66.00;28.80;;;;;;;24.73;61.32;98374.19;5008982;28;20053;-77
2021/07/19 01:11:58;;;;;;;56.88;28.70;;;;;;;24.62;61.56;98360.25;5011267;28;20050;-78
2021/07/19 01:14:24;;;;;;;;;;;;;;;24.54;61.85;98356.69;5008574;28;20057;-78
2021/07/19 01:16:51;;;;;;;48.63;25.83;;;;;;;24.41;62.03;98355.56;5009154;28;20032;-78
2021/07/19 01:19:21;;;;;;;48.40;26.55;;;;;;;24.47;62.06;98371.50;5008212;28;20503;-78
2021/07/19 01:22:41;;;;;;;42.72;24.27;;;;;;;24.54;61.76;98378.28;5007124;28;20047;-78
2021/07/19 01:25:24;;;;;;;48.35;24.55;;;;;;;24.61;61.38;98367.88;5002223;28;20042;-77
2021/07/19 01:28:05;;;;;;;76.57;39.47;;;;;;;24.59;61.41;98372.25;4992883;28;20049;-76
2021/07/19 01:30:35;;;;;;;66.18;35.17;;;;;;;24.50;61.71;98367.88;5002574;28;20077;-80
2021/07/19 01:33:04;;;;;;;65.32;32.22;;;;;;;24.50;61.62;98372.69;4994219;28;20081;-78
2021/07/19 01:35:34;;;;;;;61.58;33.13;;;;;;;24.60;61.33;98369.06;5002593;28;20073;-78
2021/07/19 01:38:01;;;;;;;56.28;32.13;;;;;;;24.61;61.50;98367.06;4997120;28;20069;-78
2021/07/19 01:40:40;;;;;;;58.45;30.65;;;;;;;24.38;62.40;98371.13;4992948;28;20081;-77
2021/07/19 01:43:08;;;;;;;57.50;29.73;;;;;;;24.22;62.81;98365.97;4995266;28;20073;-76
2021/07/19 01:45:37;;;;;;;53.08;26.65;;;;;;;24.30;62.32;98364.78;4993187;28;20160;-77
2021/07/19 01:48:06;;;;;;;41.80;23.63;;;;;;;24.39;62.12;98369.13;4997025;28;20108;-77
2021/07/19 01:50:36;;;;;;;50.15;26.05;;;;;;;24.42;62.11;98373.91;5000650;28;20042;-77
2021/07/19 01:53:16;;;;;;;47.08;24.83;;;;;;;24.43;62.23;98370.72;5001759;28;20038;-77
2021/07/19 01:55:43;;;;;;;45.00;24.92;;;;;;;24.54;61.85;98367.88;5001960;28;21366;-77
2021/07/19 01:58:12;;;;;;;50.70;27.10;;;;;;;24.51;62.01;98368.69;4994745;28;20050;-77
2021/07/19 02:00:45;;;;;;;51.20;27.13;;;;;;;24.53;61.68;98369.09;5007940;28;20519;-77
2021/07/19 02:03:12;;;;;;;56.45;28.50;;;;;;;24.59;61.74;98361.09;5013372;28;20536;-77
2021/07/19 02:05:49;;;;;;;53.08;28.63;;;;;;;24.72;61.40;98356.63;5009199;28;20042;-77
2021/07/19 02:08:20;;;;;;;57.15;31.13;;;;;;;24.75;61.39;98357.84;5013071;28;20069;-77
2021/07/19 02:11:07;;;;;;;56.63;30.13;;;;;;;24.51;62.10;98365.91;4994764;28;20054;-76
2021/07/19 02:13:38;;;;;;;50.25;28.15;;;;;;;24.51;62.34;98371.50;4978471;28;20054;-78
2021/07/19 02:16:07;;;;;;;52.42;26.08;;;;;;;24.49;62.23;98371.88;5008965;28;20587;-78
2021/07/19 02:18:38;;;;;;;46.85;25.85;;;;;;;24.49;62.48;98373.88;5011750;28;20462;-77
2021/07/19 02:21:06;;;;;;;47.13;26.45;;;;;;;24.40;62.51;98377.13;4998574;28;20057;-77
2021/07/19 02:23:40;;;;;;;47.08;27.63;;;;;;;24.27;63.53;98368.34;5000698;28;20053;-77
2021/07/19 02:26:40;;;;;;;50.92;27.58;;;;;;;24.07;64.25;98381.97;4961170;28;20057;-77
2021/07/19 02:29:07;;;;;;;;;;;;;;;23.90;64.93;98378.78;5024001;28;20052;-77
2021/07/19 02:31:34;;;;;;;;;;;;;;;23.81;64.94;98374.78;5012253;28;19976;-78
2021/07/19 02:34:04;;;;;;;55.83;29.65;;;;;;;23.54;65.98;98377.97;5012022;28;19925;-78
2021/07/19 02:36:32;;;;;;;61.35;30.80;;;;;;;23.35;66.92;98377.16;5003674;28;20521;-77
2021/07/19 02:39:00;;;;;;;61.67;34.20;;;;;;;23.04;68.44;98382.25;5011384;28;20034;-77
2021/07/19 02:41:28;;;;;;;66.05;34.45;;;;;;;22.95;68.34;98377.03;4994644;28;20053;-79
2021/07/19 02:44:03;;;;;;;64.75;34.92;;;;;;;23.01;68.53;98383.00;5011629;28;20046;-78
2021/07/19 02:46:50;;;;;;;59.53;33.92;;;;;;;23.02;68.32;98390.97;5011718;28;20054;-78
2021/07/19 02:49:18;;;;;;;62.08;32.92;;;;;;;23.12;68.40;98388.63;5010449;28;20529;-77
2021/07/19 02:51:49;;;;;;;50.38;31.15;;;;;;;23.19;67.98;98391.41;5012644;28;20077;-77
2021/07/19 02:54:17;;;;;;;63.28;32.72;;;;;;;23.15;68.33;98390.63;4994894;28;20144;-78
2021/07/19 02:56:44;;;;;;;57.05;29.17;;;;;;;23.15;68.37;98387.84;5012786;28;20053;-77
2021/07/19 02:59:13;;;;;;;54.38;30.90;;;;;;;23.21;68.15;98384.28;4995520;28;20049;-74
2021/07/19 03:01:41;;;;;;;60.88;32.47;;;;;;;23.16;68.43;98389.44;4999174;28;20149;-75
2021/07/19 03:04:09;;;;;;;56.70;31.10;;;;;;;23.24;68.38;98396.59;4975098;28;20046;-74
2021/07/19 03:06:41;;;;;;;51.63;29.58;;;;;;;23.25;68.21;98392.63;5001902;28;20050;-74
2021/07/19 03:09:14;;;;;;;49.08;28.35;;;;;;;23.36;67.94;98390.69;4994453;28;20073;-75
2021/07/19 03:11:44;;;;;;;50.05;27.92;;;;;;;23.29;68.11;98395.47;4991813;28;20092;-75
2021/07/19 03:14:19;;;;;;;64.15;29.88;;;;;;;23.15;68.51;98387.84;4995412;28;20047;-75
2021/07/19 03:16:49;;;;;;;42.42;25.92;;;;;;;23.16;68.72;98393.00;5008793;28;20065;-74
2021/07/19 03:19:19;;;;;;;53.63;28.10;;;;;;;22.93;69.93;98384.97;4999419;28;20049;-74
2021/07/19 03:21:47;;;;;;;50.40;29.17;;;;;;;22.60;70.84;98389.63;4992581;28;20517;-75
2021/07/19 03:24:22;;;;;;;48.28;27.90;;;;;;;22.83;69.96;98394.09;5006865;28;20050;-75
2021/07/19 03:26:50;;;;;;;54.42;28.30;;;;;;;22.78;70.30;98392.50;4999916;28;20074;-75
2021/07/19 03:29:20;;;;;;;49.88;27.92;;;;;;;22.88;70.04;98391.75;5011220;28;20414;-75
2021/07/19 03:32:23;;;;;;;58.17;30.58;;;;;;;22.73;70.89;98384.53;4949777;29;20642;-77
2021/07/19 03:34:56;;;;;;;51.55;29.23;;;;;;;22.80;70.75;98385.34;4993355;28;20046;-75
2021/07/19 03:37:27;;;;;;;54.45;28.55;;;;;;;22.83;70.75;98374.59;4997449;28;20072;-76
2021/07/19 03:39:55;;;;;;;55.97;30.98;;;;;;;23.01;70.08;98386.59;4987830;28;20042;-76
2021/07/19 03:42:25;;;;;;;57.92;32.35;;;;;;;23.14;69.77;98394.59;5005762;28;20050;-76
2021/07/19 03:44:53;;;;;;;54.05;28.98;;;;;;;23.21;69.46;98394.63;5003329;28;20103;-74
2021/07/19 03:47:26;;;;;;;55.03;29.50;;;;;;;23.31;69.02;98401.44;4993895;28;20048;-75
2021/07/19 03:49:56;;;;;;;59.47;28.42;;;;;;;23.44;68.72;98393.50;5005333;28;20049;-76
2021/07/19 03:52:25;;;;;;;50.22;29.58;;;;;;;23.53;68.52;98398.69;4991006;28;20416;-75
2021/07/19 03:54:52;;;;;;;55.40;28.33;;;;;;;23.59;68.18;98397.09;4990950;28;20052;-73
2021/07/19 03:57:19;;;;;;;54.28;29.45;;;;;;;23.51;68.23;98380.38;5008257;28;20667;-75
2021/07/19 03:59:47;;;;;;;;;;;;;;;23.48;68.81;98400.66;5008731;28;20568;-75
2021/07/19 04:02:23;;;;;;;51.13;27.15;;;;;;;23.41;69.09;98403.44;5009229;28;19961;-74
2021/07/19 04:05:07;;;;;;;58.22;28.58;;;;;;;23.48;69.04;98402.66;5010956;28;20572;-76
2021/07/19 04:07:45;;;;;;;44.83;27.17;;;;;;;23.50;68.94;98400.28;5008023;28;20411;-75
2021/07/19 04:10:14;;;;;;;46.80;28.00;;;;;;;23.50;69.47;98412.25;5010311;28;20510;-75
2021/07/19 04:12:51;;;;;;;49.88;26.80;;;;;;;23.52;69.45;98417.41;4994453;28;20045;-75
2021/07/19 04:15:22;;;;;;;46.92;26.20;;;;;;;23.49;69.34;98409.84;5010731;28;20058;-75
2021/07/19 04:17:50;;;;;;;45.20;24.45;;;;;;;23.68;68.79;98410.66;4992326;28;20053;-74
2021/07/19 04:20:23;;;;;;;44.58;26.52;;;;;;;23.76;68.57;98401.09;5010510;28;20104;-76
2021/07/19 04:22:55;;;;;;;50.00;23.65;;;;;;;23.89;68.04;98393.13;5010807;28;20057;-75
2021/07/19 04:25:22;;;;;;;45.78;25.17;;;;;;;24.03;67.82;98395.91;5009335;28;20053;-74
2021/07/19 04:27:48;;;;;;;43.53;23.03;;;;;;;24.19;67.20;98406.66;5003928;28;20383;-74
2021/07/19 04:30:15;;;;;;;29.38;15.48;;;;;;;24.44;66.31;98393.88;4993467;28;20046;-75
2021/07/19 04:32:54;;;;;;;;;;;;;;;24.73;65.30;98396.53;5010730;28;20478;-75
2021/07/19 04:35:25;;;;;;;28.52;15.45;;;;;;;24.95;64.40;98399.28;5010527;28;20031;-75
2021/07/19 04:37:56;;;;;;;26.02;14.98;;;;;;;25.19;63.48;98398.34;5008146;28;20137;-75
2021/07/19 04:40:26;;;;;;;26.63;15.10;;;;;;;25.38;62.95;98404.66;5010477;28;20137;-75
2021/07/19 04:42:53;;;;;;;32.17;16.90;;;;;;;25.51;62.30;98402.19;5009774;28;20046;-75
2021/07/19 04:45:22;;;;;;;28.17;15.18;;;;;;;25.64;62.13;98410.88;5010477;28;20050;-75
2021/07/19 04:47:51;;;;;;;26.27;15.35;;;;;;;25.70;61.90;98412.03;5009709;28;20056;-75
2021/07/19 04:50:20;;;;;;;24.60;14.52;;;;;;;25.76;61.51;98402.00;5011488;28;20057;-76
2021/07/19 04:53:09;;;;;;;30.75;14.95;;;;;;;25.79;61.17;98403.19;5009444;28;20108;-75
2021/07/19 04:55:37;;;;;;;22.77;12.25;;;;;;;25.80;61.11;98401.16;5008255;28;20044;-74
2021/07/19 04:58:08;;;;;;;26.70;14.45;;;;;;;25.84;61.02;98407.53;5011458;28;20108;-75
2021/07/19 05:00:39;;;;;;;24.02;12.00;;;;;;;25.88;61.01;98400.69;4973930;28;20105;-75
2021/07/19 05:03:08;;;;;;;29.63;14.20;;;;;;;25.89;60.72;98396.66;4993859;28;20104;-76
2021/07/19 05:05:35;;;;;;;29.83;14.82;;;;;;;25.91;60.88;98397.09;4996311;28;20438;-75
2021/07/19 05:08:06;;;;;;;24.80;12.15;;;;;;;25.94;60.81;98401.03;5011964;28;20046;-75
2021/07/19 05:10:36;;;;;;;30.33;14.68;;;;;;;25.95;60.65;98399.03;5015464;28;20060;-76
2021/07/19 05:13:04;;;;;;;28.40;16.25;;;;;;;25.86;61.00;98403.09;5013361;28;20096;-76
2021/07/19 05:15:33;;;;;;;32.33;17.60;;;;;;;25.74;61.41;98382.03;5015267;28;20046;-75
2021/07/19 05:18:00;;;;;;;36.80;20.35;;;;;;;25.71;61.81;98401.63;5013955;28;20038;-75
2021/07/19 05:20:28;;;;;;;32.30;17.83;;;;;;;25.53;62.67;98399.00;5012707;28;20465;-74
2021/07/19 05:22:55;;;;;;;39.90;19.50;;;;;;;25.10;64.16;98403.59;5014187;28;20065;-76
2021/07/19 05:25:24;;;;;;;33.65;18.80;;;;;;;25.05;64.21;98392.81;5014031;28;20049;-75
2021/07/19 05:28:08;;;;;;;36.90;18.08;;;;;;;25.08;64.72;98405.19;4996553;28;20156;-76
2021/07/19 05:30:41;;;;;;;35.67;18.13;;;;;;;25.16;64.37;98403.97;5015203;28;20060;-75
2021/07/19 05:33:09;;;;;;;29.58;15.95;;;;;;;25.26;63.64;98405.91;5013578;28;20332;-75
2021/07/19 05:35:35;;;;;;;26.58;13.43;;;;;;;25.45;62.92;98407.38;5014968;28;20491;-75
2021/07/19 05:38:04;;;;;;;27.73;16.25;;;;;;;25.50;63.17;98411.78;5011731;28;20156;-75
2021/07/19 05:40:34;;;;;;;26.40;17.02;;;;;;;25.47;63.09;98406.97;4994356;28;20046;-76
2021/07/19 05:43:03;;;;;;;30.65;17.55;;;;;;;25.39;63.65;98411.03;5014790;28;20050;-76
2021/07/19 05:45:31;;;;;;;35.95;17.90;;;;;;;25.34;63.81;98403.84;5012743;28;20108;-74
2021/07/19 05:47:58;;;;;;;33.33;17.13;;;;;;;25.38;63.71;98413.03;5013156;28;20078;-75
2021/07/19 05:50:28;;;;;;;;;;;;;;;25.29;64.18;98405.09;4995998;28;20046;-75
2021/07/19 05:52:54;;;;;;;33.03;17.77;;;;;;;25.36;63.92;98409.81;5011584;28;19929;-77
2021/07/19 05:55:20;;;;;;;;;;;;;;;25.42;63.59;98402.63;5012731;28;20096;-80
2021/07/19 05:57:49;;;;;;;33.57;15.83;;;;;;;25.48;63.23;98403.78;5014748;28;20358;-80
2021/07/19 06:00:18;;;;;;;34.13;17.67;;;;;;;25.58;62.95;98406.94;4994929;28;20161;-80
2021/07/19 06:02:46;;;;;;;32.45;16.13;;;;;;;25.70;62.68;98406.44;4991564;28;20058;-80
2021/07/19 06:05:13;;;;;;;27.58;13.65;;;;;;;25.80;61.95;98401.97;5007995;28;20494;-80
2021/07/19 06:07:42;;;;;;;27.70;14.38;;;;;;;25.98;61.78;98413.00;5013085;28;20053;-81
2021/07/19 06:10:10;;;;;;;34.72;16.65;;;;;;;26.09;61.41;98418.53;5013530;28;20481;-80
2021/07/19 06:12:37;;;;;;;28.77;15.30;;;;;;;26.13;61.13;98412.88;5012055;28;20069;-81
2021/07/19 06:15:04;;;;;;;30.23;14.93;;;;;;;26.18;60.60;98424.44;4994460;28;20465;-80
2021/07/19 06:17:30;;;;;;;;;;;;;;;26.27;60.20;98415.56;5013333;28;20502;-79
2021/07/19 06:19:58;;;;;;;37.60;16.35;;;;;;;26.12;60.22;98423.28;5012835;28;19925;-80
2021/07/19 06:22:24;;;;;;;28.63;14.68;;;;;;;26.18;60.17;98416.03;5013271;28;20137;-80
2021/07/19 06:24:51;;;;;;;30.70;16.33;;;;;;;26.23;59.92;98425.22;5013570;28;20137;-80
2021/07/19 06:27:19;;;;;;;;;;;;;;;26.17;59.90;98422.84;5013116;28;20041;-80
2021/07/19 06:29:48;;;;;;;38.03;16.08;;;;;;;26.17;59.90;98425.66;4994404;28;20421;-80
2021/07/19 06:32:18;;;;;;;31.30;15.93;;;;;;;26.13;59.99;98416.47;4996253;28;20042;-80
2021/07/19 06:34:44;;;;;;;28.38;16.65;;;;;;;26.10;59.97;98422.09;5010039;28;20096;-80
2021/07/19 06:37:14;;;;;;;27.65;16.45;;;;;;;26.22;59.58;98427.22;5014218;28;20045;-80
2021/07/19 06:39:40;;;;;;;36.40;14.52;;;;;;;26.36;59.48;98417.88;5011788;28;20050;-80
2021/07/19 06:42:06;;;;;;;22.95;12.40;;;;;;;26.50;58.52;98414.13;5013749;28;20448;-80
2021/07/19 06:44:32;;;;;;;23.02;13.13;;;;;;;26.66;58.28;98421.16;4994286;28;20077;-79
2021/07/19 06:47:02;;;;;;;40.63;17.10;;;;;;;26.41;59.59;98425.03;5011255;28;20467;-80
2021/07/19 06:49:28;;;;;;;32.20;17.55;;;;;;;26.08;60.70;98433.72;5013277;28;20050;-80
2021/07/19 06:51:54;;;;;;;34.87;18.10;;;;;;;25.87;61.48;98423.50;5011637;28;20462;-80
2021/07/19 06:54:22;;;;;;;32.42;16.10;;;;;;;25.79;62.24;98419.97;5012017;28;20374;-80
2021/07/19 06:56:50;;;;;;;29.27;15.80;;;;;;;25.85;61.61;98425.94;5012437;28;20054;-80
2021/07/19 06:59:20;;;;;;;36.65;16.58;;;;;;;25.91;61.85;98435.47;5011805;28;20060;-79
2021/07/19 07:01:46;;;;;;;29.02;15.82;;;;;;;25.76;61.98;98423.59;5010955;28;20073;-78
2021/07/19 07:04:13;;;;;;;;;;;;;;;25.71;61.68;98432.41;5013032;28;20577;-79
2021/07/19 07:06:39;;;;;;;36.63;15.90;;;;;;;25.75;61.67;98433.19;5010417;28;20028;-79
2021/07/19 07:09:06;;;;;;;30.20;15.63;;;;;;;25.71;61.88;98421.22;5012133;28;20061;-79
2021/07/19 07:11:33;;;;;;;34.78;15.18;;;;;;;25.71;61.38;98413.63;5011338;28;20050;-80
2021/07/19 07:13:59;;;;;;;35.60;15.32;;;;;;;26.01;60.63;98428.97;5011828;28;20076;-79
2021/07/19 07:16:25;;;;;;;31.13;14.07;;;;;;;26.23;59.59;98430.81;5006253;28;20046;-79
2021/07/19 07:18:52;;;;;;;29.92;15.52;;;;;;;26.30;59.23;98423.16;5011116;28;20045;-79
2021/07/19 07:21:18;;;;;;;26.60;13.68;;;;;;;26.43;58.69;98425.41;4990396;28;20046;-82
2021/07/19 07:23:44;;;;;;;35.30;17.88;;;;;;;26.47;58.52;98432.56;5000071;28;20054;-83
2021/07/19 07:26:10;;;;;;;36.17;16.43;;;;;;;26.50;58.85;98425.34;4995429;28;20430;-82
2021/07/19 07:28:37;;;;;;;48.45;17.02;;;;;;;26.57;58.58;98430.84;5014890;28;20058;-83
2021/07/19 07:31:03;;;;;;;42.22;16.92;;;;;;;26.63;58.97;98420.00;5010911;28;20061;-83
2021/07/19 07:33:30;;;;;;;30.67;15.37;;;;;;;26.33;59.85;98429.91;5010498;28;20518;-77
2021/07/19 07:35:56;;;;;;;30.67;14.55;;;;;;;26.30;59.60;98433.53;5010267;28;20311;-76
2021/07/19 07:38:22;;;;;;;43.95;16.52;;;;;;;26.42;59.49;98424.63;5012309;28;20099;-77
2021/07/19 07:40:52;;;;;;;57.03;16.80;;;;;;;26.52;59.13;98434.13;5011563;28;20077;-76
2021/07/19 07:43:18;;;;;;;38.42;14.88;;;;;;;26.67;58.66;98433.97;5011115;28;20095;-76
2021/07/19 07:45:48;;;;;;;30.33;13.70;;;;;;;26.79;57.92;98432.63;5005798;28;20459;-76
2021/07/19 07:48:14;;;;;;;35.40;14.90;;;;;;;26.81;57.86;98431.00;5009911;28;20584;-76
2021/07/19 07:50:40;;;;;;;25.65;14.23;;;;;;;26.88;57.46;98430.16;4992313;28;20069;-76
2021/07/19 07:53:07;;;;;;;30.33;14.40;;;;;;;26.81;57.16;98428.19;4998589;28;20592;-77
2021/07/19 07:55:33;;;;;;;32.55;14.38;;;;;;;26.85;57.19;98428.94;5008362;28;20103;-76
2021/07/19 07:58:01;;;;;;;28.33;13.20;;;;;;;27.01;56.77;98422.78;5010407;28;20041;-76
2021/07/19 08:00:27;;;;;;;23.58;12.25;;;;;;;27.11;56.68;98423.03;5007257;28;20042;-77
2021/07/19 08:02:55;;;;;;;26.58;12.73;;;;;;;27.16;55.92;98408.53;5008860;28;20058;-75
2021/07/19 08:05:21;;;;;;;29.80;13.25;;;;;;;27.10;55.44;98399.81;5006393;28;20065;-73
2021/07/19 08:07:48;;;;;;;37.15;13.40;;;;;;;27.14;55.42;98400.56;5007638;28;20050;-74
2021/07/19 08:10:15;;;;;;;34.42;13.95;;;;;;;27.02;55.15;98413.16;5012087;28;20077;-73
2021/07/19 08:12:43;;;;;;;;;;;;;;;26.92;55.22;98404.84;4993639;28;20055;-73
2021/07/19 08:15:11;;;;;;;40.45;14.20;;;;;;;26.93;54.78;98403.63;5010599;28;19926;-73
2021/07/19 08:17:37;;;;;;;35.67;13.60;;;;;;;27.01;55.29;98400.34;5011997;28;20572;-73
2021/07/19 08:20:06;;;;;;;30.60;12.70;;;;;;;27.11;55.44;98404.22;5010272;28;20078;-74
2021/07/19 08:22:33;;;;;;;29.45;13.77;;;;;;;27.26;55.45;98406.81;4993707;28;20099;-73
2021/07/19 08:24:59;;;;;;;28.80;13.33;;;;;;;27.39;54.92;98405.00;5010549;28;20084;-74
2021/07/19 08:27:26;;;;;;;43.55;13.45;;;;;;;27.42;53.53;98401.38;5012175;28;20046;-74
2021/07/19 08:29:53;;;;;;;24.67;12.07;;;;;;;27.36;53.23;98405.06;5011369;28;20045;-73
2021/07/19 08:32:19;;;;;;;27.35;11.63;;;;;;;27.38;53.26;98383.00;5011713;28;20084;-73
2021/07/19 08:34:45;;;;;;;25.27;12.02;;;;;;;27.52;52.02;98399.66;5011736;28;20050;-74
2021/07/19 08:37:14;;;;;;;30.17;12.70;;;;;;;27.55;52.47;98404.41;5009973;28;20153;-73
2021/07/19 08:39:41;;;;;;;24.80;12.20;;;;;;;27.52;49.96;98396.84;4993173;28;20141;-75
2021/07/19 08:42:10;;;;;;;26.00;11.32;;;;;;;27.51;51.51;98392.41;5010253;28;20061;-75
2021/07/19 08:44:37;;;;;;;28.55;12.30;;;;;;;27.55;52.19;98393.19;5011258;28;20042;-76
2021/07/19 08:47:06;;;;;;;25.90;11.95;;;;;;;27.64;51.43;98398.25;4976725;28;20536;-75
2021/07/19 08:49:32;;;;;;;30.52;13.10;;;;;;;27.73;50.66;98383.69;5010793;28;20042;-75
2021/07/19 08:52:00;;;;;;;23.23;12.00;;;;;;;27.73;49.01;98383.69;4993351;28;20096;-75
2021/07/19 08:54:32;;;;;;;;;;;;;;;27.35;48.62;98384.63;4993251;28;20092;-76
2021/07/19 08:56:58;;;;;;;24.83;12.88;;;;;;;27.42;48.93;98383.72;4977145;28;19933;-75
2021/07/19 08:59:25;;;;;;;24.20;12.75;;;;;;;27.56;48.85;98369.50;5009899;28;20124;-76
2021/07/19 09:01:51;;;;;;;21.52;12.55;;;;;;;27.67;49.96;98379.78;5010859;28;20049;-75
2021/07/19 09:04:18;;;;;;;22.37;11.70;;;;;;;27.80;50.01;98383.56;5009004;28;20524;-75
2021/07/19 09:06:45;;;;;;;23.02;11.77;;;;;;;27.91;49.48;98386.19;5010851;28;20132;-75
2021/07/19 09:09:11;;;;;;;30.92;12.23;;;;;;;27.98;48.62;98391.66;5009108;28;20064;-76
2021/07/19 09:11:47;;;;;;;25.80;11.73;;;;;;;28.09;47.59;98387.88;4992649;28;20049;-76
2021/07/19 09:14:14;;;;;;;25.25;12.52;;;;;;;28.10;48.13;98381.84;5003599;28;20054;-77
2021/07/19 09:16:41;;;;;;;26.48;12.32;;;;;;;28.13;48.27;98383.00;5007599;28;20133;-75
2021/07/19 09:19:09;;;;;;;24.75;10.95;;;;;;;28.24;48.21;98383.63;5000367;28;20065;-74
2021/07/19 09:21:37;;;;;;;27.48;12.05;;;;;;;28.31;47.23;98377.09;5002316;28;20089;-74
2021/07/19 09:24:06;;;;;;;27.73;12.68;;;;;;;28.29;47.67;98371.88;4991266;28;20534;-74
2021/07/19 09:26:33;;;;;;;28.50;12.05;;;;;;;28.18;46.87;98365.69;5002964;28;20047;-75
2021/07/19 09:29:01;;;;;;;35.25;13.45;;;;;;;28.26;47.44;98375.56;5005972;28;20133;-75
2021/07/19 09:31:32;;;;;;;24.95;12.75;;;;;;;28.40;46.73;98365.28;5007852;28;20119;-74
2021/07/19 09:33:59;;;;;;;27.25;12.30;;;;;;;28.45;46.53;98364.75;5008524;28;20077;-76
2021/07/19 09:36:27;;;;;;;27.42;12.55;;;;;;;28.33;43.69;98360.59;5008063;28;20052;-76
2021/07/19 09:39:04;;;;;;;27.13;12.43;;;;;;;28.22;43.14;98360.78;5008805;28;20444;-75
2021/07/19 09:41:30;;;;;;;25.00;12.70;;;;;;;28.45;44.12;98382.44;5000239;28;20132;-75
2021/07/19 09:43:56;;;;;;;27.17;11.23;;;;;;;28.62;45.12;98371.25;5000611;28;20042;-74
2021/07/19 09:46:35;;;;;;;22.63;11.80;;;;;;;28.71;44.55;98370.66;4991066;28;20051;-73
2021/07/19 09:49:03;;;;;;;25.48;12.65;;;;;;;28.72;44.44;98375.06;5007360;28;20074;-74
2021/07/19 09:51:32;;;;;;;25.30;12.35;;;;;;;28.76;44.27;98369.38;5013596;28;20057;-75
2021/07/19 09:54:08;;;;;;;29.23;12.60;;;;;;;28.62;43.48;98362.00;4997486;28;20051;-75
2021/07/19 09:56:34;;;;;;;20.73;11.75;;;;;;;28.61;44.21;98375.28;4992949;28;20192;-75
2021/07/19 09:59:05;;;;;;;33.07;12.83;;;;;;;28.65;41.86;98380.84;4984862;28;20042;-75
2021/07/19 10:01:35;;;;;;;26.88;12.70;;;;;;;28.62;40.61;98382.50;5013828;28;20808;-73
2021/07/19 10:04:03;;;;;;;23.58;11.90;;;;;;;28.80;40.65;98378.53;5011897;28;20049;-75
2021/07/19 10:06:29;;;;;;;27.75;11.57;;;;;;;28.92;39.52;98375.09;5011916;28;20111;-74
2021/07/19 10:08:56;;;;;;;31.58;11.75;;;;;;;29.00;40.26;98376.50;5013044;28;20042;-75
2021/07/19 10:11:22;;;;;;;21.52;11.65;;;;;;;29.01;41.06;98349.94;5012841;28;20057;-75
2021/07/19 10:13:49;;;;;;;23.63;11.87;;;;;;;29.10;41.40;98371.84;5012333;28;20094;-75
2021/07/19 10:16:16;;;;;;;26.60;11.65;;;;;;;29.18;41.13;98375.31;4993924;28;20067;-75
2021/07/19 10:18:47;;;;;;;26.92;11.85;;;;;;;29.25;40.43;98363.09;5012992;28;20046;-75
2021/07/19 10:21:13;;;;;;;18.42;10.88;;;;;;;29.21;40.78;98368.03;5012414;28;20106;-76
2021/07/19 10:23:40;;;;;;;23.92;11.95;;;;;;;29.24;40.63;98362.31;5010695;28;20140;-73
2021/07/19 10:26:06;;;;;;;24.25;11.55;;;;;;;29.25;40.19;98365.91;4997216;28;20529;-74
2021/07/19 10:28:32;;;;;;;22.60;11.63;;;;;;;29.16;39.91;98332.75;5007864;28;20053;-76
2021/07/19 10:30:58;;;;;;;20.48;11.00;;;;;;;29.34;39.98;98365.31;4999385;28;20070;-75
2021/07/19 10:33:24;;;;;;;19.48;10.60;;;;;;;29.42;39.86;98366.75;5001272;28;20065;-75
2021/07/19 10:35:57;;;;;;;29.20;11.05;;;;;;;29.37;39.88;98358.81;5002001;28;20042;-76
2021/07/19 10:38:26;;;;;;;26.20;11.63;;;;;;;29.37;39.77;98359.59;5004902;28;20054;-76
2021/07/19 10:40:55;;;;;;;20.15;11.32;;;;;;;29.43;39.67;98346.63;5007337;28;20054;-74
2021/07/19 10:43:22;;;;;;;25.60;10.73;;;;;;;29.56;38.37;98348.72;5009153;28;20080;-74
2021/07/19 10:45:50;;;;;;;20.95;11.48;;;;;;;29.61;38.67;98342.59;5012731;28;20458;-75
2021/07/19 10:48:24;;;;;;;22.63;11.60;;;;;;;29.72;38.84;98359.97;5011270;28;20061;-75
2021/07/19 10:50:54;;;;;;;26.00;10.80;;;;;;;29.85;38.62;98362.09;5009764;28;20100;-75
2021/07/19 10:53:22;;;;;;;18.25;10.80;;;;;;;29.83;38.63;98358.91;5003275;28;20522;-76
2021/07/19 10:56:01;;;;;;;22.13;11.00;;;;;;;29.64;38.72;98355.78;4995396;28;20076;-76
2021/07/19 10:58:37;;;;;;;23.95;11.23;;;;;;;29.67;38.00;98349.25;5009792;28;20518;-76
2021/07/19 11:01:03;;;;;;;23.38;10.93;;;;;;;29.83;38.56;98347.66;5009496;28;20117;-76
2021/07/19 11:03:38;;;;;;;24.00;11.07;;;;;;;29.97;37.54;98321.94;4994391;28;20052;-77
2021/07/19 11:06:06;;;;;;;30.88;12.20;;;;;;;29.94;39.24;98341.72;5012077;28;20069;-76
2021/07/19 11:08:32;;;;;;;23.70;11.25;;;;;;;29.82;38.59;98329.19;5010997;28;20463;-76
2021/07/19 11:10:59;;;;;;;25.88;11.85;;;;;;;29.69;38.88;98331.94;5011872;28;20526;-77
2021/07/19 11:13:27;;;;;;;23.15;10.77;;;;;;;29.55;38.61;98336.69;5010828;28;20176;-76
2021/07/19 11:15:53;;;;;;;20.98;11.15;;;;;;;29.58;38.86;98324.53;5011893;28;20108;-76
2021/07/19 11:18:28;;;;;;;22.25;11.55;;;;;;;29.65;38.66;98331.22;5011169;28;20049;-75
2021/07/19 11:20:57;;;;;;;27.38;11.75;;;;;;;29.79;38.22;98336.47;5011316;28;20442;-76
2021/07/19 11:23:30;;;;;;;22.17;10.88;;;;;;;29.91;38.46;98334.19;5012553;28;20112;-76
2021/07/19 11:25:58;;;;;;;20.02;9.65;;;;;;;30.08;36.16;98332.16;5010862;28;20168;-77
2021/07/19 11:28:28;;;;;;;19.95;10.60;;;;;;;30.10;36.01;98326.88;5012426;28;20548;-76
2021/07/19 11:31:02;;;;;;;22.45;10.60;;;;;;;30.17;35.96;98323.06;5011540;28;20152;-75